Raymondville, Texas
Current Conditions -  °F | °C
As of 9:52 PM on Tuesday 21 Oct 2014 (Local Time) from KHRL Reporting Station
Scattered Clouds Scattered Clouds  
Wind Chill: 24°   Ceiling: Unl
Heat Index: 24°   Visibility: 10mi
Dew Point: 22°   Wind: 7mph
Humidity: 90%   Direction: 60°ENE
Pressure: 29.95"   Gusts: NA
Location:  26.48°N, 97.78°W
Report Text: KHRL 220252Z 06006KT 10SM SCT095 SCT120 24/22 A2995 RMK AO2 SLP143 P0002 60005 T02390222 51019
Loading
Personal Weather Stations






























Interactive Weather Map
Tropical Storm Tracking
New forecast layout! Learn more

10-Day Weather Forecast

Advertisements
Track Severe Weather on mobile